Time;durP1;ratioP1;P1;durP2;ratioP2;P2;SDS_P1;SDS_P2;PMS_P1;PMS_P2;Temp;Humidity;BMP_temperature;BMP_pressure;BME280_temperature;BME280_humidity;BME280_pressure;Samples;Min_cycle;Max_cycle;Signal;HPM_P1;HPM_P2
2023/12/08 00:00:12;;;;;;;7.43;6.72;;;22.30;62.20;;;;;;6230415;28;93715;-61
2023/12/08 00:03:16;;;;;;;7.75;6.95;;;22.30;62.30;;;;;;6232098;28;94495;-61
2023/12/08 00:06:18;;;;;;;8.10;7.05;;;22.30;62.10;;;;;;6226254;28;94172;-61
2023/12/08 00:09:20;;;;;;;10.43;7.90;;;22.30;62.20;;;;;;6217341;28;95041;-61
2023/12/08 00:12:22;;;;;;;8.82;7.15;;;22.20;62.10;;;;;;6228628;28;94063;-61
2023/12/08 00:15:24;;;;;;;8.00;6.70;;;22.20;62.50;;;;;;6226978;28;94548;-61
2023/12/08 00:18:27;;;;;;;7.20;6.50;;;22.20;62.70;;;;;;6231123;28;94145;-61
2023/12/08 00:21:29;;;;;;;6.80;6.10;;;22.20;62.90;;;;;;6224763;28;94215;-61
2023/12/08 00:24:31;;;;;;;7.28;6.57;;;22.20;63.00;;;;;;6217195;28;94115;-61
2023/12/08 00:27:33;;;;;;;8.35;6.75;;;22.20;62.90;;;;;;6225444;28;94028;-61
2023/12/08 00:30:35;;;;;;;7.32;6.50;;;22.30;62.70;;;;;;6230539;28;93356;-61
2023/12/08 00:33:39;;;;;;;7.72;6.90;;;22.20;62.50;;;;;;6227876;28;94137;-60
2023/12/08 00:36:41;;;;;;;10.13;7.15;;;22.30;62.80;;;;;;6225124;28;93028;-60
2023/12/08 00:39:43;;;;;;;7.10;6.40;;;22.30;63.00;;;;;;6227576;28;95062;-60
2023/12/08 00:42:45;;;;;;;6.95;6.28;;;22.30;63.30;;;;;;6230252;28;94228;-60
2023/12/08 00:45:47;;;;;;;6.40;5.80;;;22.30;63.30;;;;;;6223245;28;94010;-60
2023/12/08 00:48:51;;;;;;;6.70;6.00;;;22.30;63.50;;;;;;6224863;28;94216;-60
2023/12/08 00:51:53;;;;;;;6.13;5.53;;;22.20;63.70;;;;;;6226628;28;94374;-60
2023/12/08 00:54:54;;;;;;;9.18;6.78;;;22.20;63.70;;;;;;6218557;28;94275;-60
2023/12/08 00:57:56;;;;;;;7.97;6.30;;;22.20;63.90;;;;;;6225664;28;94604;-60
2023/12/08 01:00:58;;;;;;;6.47;5.70;;;22.20;64.00;;;;;;6224585;28;93486;-60
2023/12/08 01:04:02;;;;;;;6.32;5.68;;;22.20;64.00;;;;;;6218066;28;94032;-60
2023/12/08 01:07:04;;;;;;;6.70;5.47;;;22.20;64.20;;;;;;6227875;28;94132;-60
2023/12/08 01:10:07;;;;;;;6.20;5.60;;;22.20;64.50;;;;;;6224580;28;95011;-60
2023/12/08 01:13:09;;;;;;;6.03;5.43;;;22.20;64.60;;;;;;6225508;28;94078;-60
2023/12/08 01:16:12;;;;;;;6.88;6.15;;;22.20;64.50;;;;;;6224673;28;94216;-60
2023/12/08 01:19:16;;;;;;;5.88;5.28;;;22.20;64.70;;;;;;6223547;28;95081;-60
2023/12/08 01:22:18;;;;;;;6.72;5.60;;;22.20;64.90;;;;;;6227012;28;94221;-60
2023/12/08 01:25:20;;;;;;;6.82;5.95;;;22.20;64.90;;;;;;6228302;28;94306;-60
2023/12/08 01:28:22;;;;;;;6.32;5.72;;;22.20;65.00;;;;;;6233465;28;94119;-60
2023/12/08 01:31:24;;;;;;;8.15;5.97;;;22.20;64.80;;;;;;6237691;28;93618;-60
2023/12/08 01:34:27;;;;;;;6.03;5.43;;;22.20;64.70;;;;;;6228805;28;94445;-60
2023/12/08 01:37:29;;;;;;;6.60;5.28;;;22.20;64.80;;;;;;6237051;28;94053;-60
2023/12/08 01:40:31;;;;;;;5.93;5.32;;;22.20;64.90;;;;;;6220652;28;95069;-60
2023/12/08 01:43:33;;;;;;;5.97;5.43;;;22.20;64.90;;;;;;6227134;28;94126;-60
2023/12/08 01:46:36;;;;;;;7.05;5.60;;;22.20;65.00;;;;;;6225791;28;94275;-60
2023/12/08 01:49:41;;;;;;;6.85;5.78;;;22.10;65.00;;;;;;6207982;28;93973;-60
2023/12/08 01:52:43;;;;;;;7.25;5.93;;;22.20;65.30;;;;;;6212061;28;93275;-60
2023/12/08 01:55:45;;;;;;;6.93;5.28;;;22.20;65.40;;;;;;6226847;28;94036;-60
2023/12/08 01:58:47;;;;;;;6.72;5.50;;;22.10;65.30;;;;;;6221400;28;94154;-60
2023/12/08 02:01:49;;;;;;;7.43;5.72;;;22.10;65.40;;;;;;6225905;28;93330;-60
2023/12/08 02:04:57;;;;;;;6.28;5.20;;;22.10;65.50;;;;;;6221849;28;94387;-60
2023/12/08 02:08:00;;;;;;;6.10;5.50;;;22.10;65.50;;;;;;6216593;28;94498;-60
2023/12/08 02:11:02;;;;;;;5.57;5.05;;;22.10;65.60;;;;;;6221647;28;95203;-60
2023/12/08 02:14:04;;;;;;;9.75;6.15;;;22.10;66.00;;;;;;6222266;28;94147;-60
2023/12/08 02:17:13;;;;;;;6.03;5.30;;;22.10;65.90;;;;;;6213490;28;93005;-63
2023/12/08 02:20:17;;;;;;;6.80;5.50;;;22.10;65.90;;;;;;6229792;28;94224;-60
2023/12/08 02:23:19;;;;;;;6.10;5.43;;;22.10;65.90;;;;;;6223116;28;94060;-61
2023/12/08 02:26:22;;;;;;;5.88;5.15;;;22.10;65.90;;;;;;6222656;28;94098;-60
2023/12/08 02:29:25;;;;;;;7.03;5.50;;;22.10;65.90;;;;;;6225735;28;94160;-60
2023/12/08 02:32:34;;;;;;;6.10;5.50;;;22.10;65.90;;;;;;6225798;28;93623;-60
2023/12/08 02:35:39;;;;;;;6.68;5.40;;;22.10;66.10;;;;;;6222482;28;94267;-60
2023/12/08 02:38:42;;;;;;;7.47;5.43;;;22.10;66.10;;;;;;6237824;28;93448;-60
2023/12/08 02:41:45;;;;;;;5.50;5.00;;;22.10;66.20;;;;;;6227859;28;95317;-60
2023/12/08 02:44:47;;;;;;;5.05;4.55;;;22.10;66.20;;;;;;6229276;28;94112;-60
2023/12/08 02:47:49;;;;;;;6.63;5.38;;;22.10;66.30;;;;;;6223870;28;94500;-60
2023/12/08 02:50:52;;;;;;;5.82;5.18;;;22.10;66.40;;;;;;6227387;28;94136;-60
2023/12/08 02:53:54;;;;;;;5.75;4.95;;;22.00;66.40;;;;;;6230612;28;94082;-60
2023/12/08 02:56:57;;;;;;;5.65;5.03;;;22.10;67.40;;;;;;6215040;28;94323;-60
2023/12/08 02:59:59;;;;;;;6.47;5.05;;;22.00;66.40;;;;;;6228828;28;95775;-59
2023/12/08 03:03:01;;;;;;;6.55;5.20;;;22.10;66.40;;;;;;6230916;28;93533;-60
2023/12/08 03:06:03;;;;;;;5.30;4.80;;;22.10;66.60;;;;;;6234819;28;94588;-61
2023/12/08 03:09:05;;;;;;;5.72;4.97;;;22.10;66.60;;;;;;6229901;28;94454;-61
2023/12/08 03:12:09;;;;;;;5.45;4.95;;;22.10;66.70;;;;;;6233911;28;95091;-60
2023/12/08 03:15:11;;;;;;;5.20;4.70;;;22.00;66.70;;;;;;6222372;28;94308;-60
2023/12/08 03:18:13;;;;;;;5.90;5.30;;;22.00;66.90;;;;;;6227035;28;94093;-60
2023/12/08 03:21:22;;;;;;;6.15;5.50;;;22.10;66.90;;;;;;6228017;28;94309;-60
2023/12/08 03:24:24;;;;;;;6.43;5.72;;;22.10;66.90;;;;;;6212805;28;94126;-60
2023/12/08 03:27:27;;;;;;;6.63;5.72;;;22.00;66.80;;;;;;6226709;28;94176;-61
2023/12/08 03:30:29;;;;;;;5.97;5.38;;;22.10;66.90;;;;;;6235248;28;94086;-60
2023/12/08 03:33:31;;;;;;;6.38;5.72;;;22.00;67.00;;;;;;6234609;28;93348;-60
2023/12/08 03:36:33;;;;;;;6.50;5.90;;;22.10;67.10;;;;;;6236436;28;94476;-60
2023/12/08 03:39:35;;;;;;;7.45;6.13;;;22.10;66.90;;;;;;6233145;28;94322;-60
2023/12/08 03:42:38;;;;;;;6.47;5.82;;;22.00;66.90;;;;;;6230584;28;95025;-60
2023/12/08 03:45:40;;;;;;;8.57;6.97;;;22.00;66.90;;;;;;6226435;28;94063;-60
2023/12/08 03:48:42;;;;;;;8.63;6.30;;;22.10;67.00;;;;;;6217836;28;94161;-60
2023/12/08 03:51:44;;;;;;;6.88;6.15;;;22.00;67.00;;;;;;6230863;28;94137;-60
2023/12/08 03:54:46;;;;;;;7.10;6.40;;;22.10;66.60;;;;;;6220216;28;93050;-60
2023/12/08 03:57:50;;;;;;;6.82;6.13;;;22.10;66.20;;;;;;6227138;28;94387;-60
2023/12/08 04:00:52;;;;;;;7.05;6.25;;;22.10;65.90;;;;;;6221436;28;94473;-59
2023/12/08 04:03:54;;;;;;;6.50;5.90;;;22.10;66.70;;;;;;6223510;28;93344;-61
2023/12/08 04:06:57;;;;;;;7.82;6.40;;;22.10;66.00;;;;;;6225334;28;94044;-61
2023/12/08 04:09:59;;;;;;;6.72;6.03;;;22.00;65.90;;;;;;6229684;28;94230;-61
2023/12/08 04:13:02;;;;;;;7.43;6.68;;;22.00;66.00;;;;;;6222143;28;95018;-61
2023/12/08 04:16:05;;;;;;;7.03;6.30;;;22.00;66.10;;;;;;6220826;28;94140;-61
2023/12/08 04:19:07;;;;;;;10.68;7.50;;;22.00;66.10;;;;;;6227828;28;94312;-61
2023/12/08 04:22:09;;;;;;;7.45;6.68;;;22.00;66.20;;;;;;6220797;28;93017;-61
2023/12/08 04:25:14;;;;;;;7.25;6.55;;;22.00;66.20;;;;;;6228104;28;94154;-61
2023/12/08 04:28:17;;;;;;;7.35;6.63;;;22.00;66.20;;;;;;6206845;28;94419;-60
2023/12/08 04:31:19;;;;;;;6.80;6.10;;;22.00;66.40;;;;;;6208482;28;94147;-60
2023/12/08 04:34:21;;;;;;;7.00;6.30;;;22.00;66.40;;;;;;6225802;28;93649;-60
2023/12/08 04:37:23;;;;;;;7.53;6.82;;;22.10;66.50;;;;;;6224597;28;94414;-60
2023/12/08 04:40:25;;;;;;;7.50;6.80;;;22.00;66.40;;;;;;6226163;28;94068;-60
2023/12/08 04:43:28;;;;;;;7.40;6.60;;;22.10;66.40;;;;;;6233438;28;94724;-61
2023/12/08 04:46:30;;;;;;;7.78;6.95;;;22.10;66.50;;;;;;6235215;28;94469;-60
2023/12/08 04:49:32;;;;;;;9.30;7.22;;;22.10;66.60;;;;;;6227905;28;94124;-61
2023/12/08 04:52:34;;;;;;;8.68;7.18;;;22.10;66.60;;;;;;6224409;28;94077;-60
2023/12/08 04:55:36;;;;;;;8.68;7.10;;;22.10;66.70;;;;;;6228391;28;94106;-61
2023/12/08 04:58:40;;;;;;;7.07;6.38;;;22.10;66.70;;;;;;6222208;28;94200;-61
2023/12/08 05:01:42;;;;;;;7.10;6.30;;;22.10;66.70;;;;;;6225933;28;93319;-61
2023/12/08 05:04:44;;;;;;;8.07;6.90;;;22.10;66.70;;;;;;6218664;28;93530;-60
2023/12/08 05:07:46;;;;;;;7.22;6.53;;;22.10;66.70;;;;;;6216607;28;94273;-60
2023/12/08 05:10:48;;;;;;;8.13;6.80;;;22.10;66.80;;;;;;6229962;28;94211;-60
2023/12/08 05:13:51;;;;;;;9.15;6.93;;;22.10;66.90;;;;;;6226940;28;95059;-60
2023/12/08 05:16:53;;;;;;;7.70;6.90;;;22.10;66.90;;;;;;6222223;28;93071;-60
2023/12/08 05:19:55;;;;;;;6.95;6.25;;;22.10;66.90;;;;;;6229430;28;94416;-60
2023/12/08 05:22:57;;;;;;;7.40;6.30;;;22.10;67.00;;;;;;6219476;28;94459;-60
2023/12/08 05:25:59;;;;;;;8.02;6.90;;;22.10;67.10;;;;;;6227398;28;94214;-60
2023/12/08 05:29:02;;;;;;;7.07;6.38;;;22.10;67.10;;;;;;6228670;28;94119;-61
2023/12/08 05:32:05;;;;;;;6.90;6.25;;;22.10;67.10;;;;;;6240099;28;94169;-60
2023/12/08 05:35:08;;;;;;;7.13;6.43;;;22.10;67.20;;;;;;6223838;28;93615;-60
2023/12/08 05:38:09;;;;;;;7.03;6.32;;;22.10;67.20;;;;;;6219653;28;94053;-60
2023/12/08 05:41:11;;;;;;;8.10;6.72;;;22.10;67.20;;;;;;6211802;28;94015;-61
2023/12/08 05:44:16;;;;;;;6.93;6.22;;;22.10;67.30;;;;;;6240472;28;93945;-61
2023/12/08 05:47:19;;;;;;;6.78;6.07;;;22.10;67.40;;;;;;6224447;28;93758;-60
2023/12/08 05:50:21;;;;;;;8.60;6.97;;;22.10;67.40;;;;;;6216077;28;94270;-61
2023/12/08 05:53:23;;;;;;;6.75;6.13;;;22.10;67.50;;;;;;6224905;28;94727;-61
2023/12/08 05:56:25;;;;;;;6.78;6.07;;;22.10;67.60;;;;;;6209287;28;94371;-60
2023/12/08 05:59:28;;;;;;;6.70;6.03;;;22.00;67.70;;;;;;6225047;28;94275;-60
2023/12/08 06:02:30;;;;;;;7.20;6.50;;;22.00;67.70;;;;;;6218339;28;94194;-60
2023/12/08 06:05:32;;;;;;;7.55;6.47;;;22.00;67.90;;;;;;6218302;28;93782;-61
2023/12/08 06:08:34;;;;;;;7.40;6.25;;;22.00;67.90;;;;;;6205553;28;94065;-61
2023/12/08 06:11:37;;;;;;;7.03;6.32;;;22.00;68.00;;;;;;6218479;28;94394;-61
2023/12/08 06:14:40;;;;;;;7.25;6.38;;;22.00;68.00;;;;;;6216816;28;95020;-61
2023/12/08 06:17:42;;;;;;;6.72;5.60;;;22.00;68.10;;;;;;6229406;28;94124;-61
2023/12/08 06:20:44;;;;;;;6.38;5.78;;;22.00;68.10;;;;;;6235590;28;93970;-61
2023/12/08 06:23:47;;;;;;;6.30;5.63;;;22.00;68.20;;;;;;6233411;28;94045;-61
2023/12/08 06:26:49;;;;;;;6.80;5.93;;;22.00;68.20;;;;;;6228583;28;94173;-61
2023/12/08 06:29:52;;;;;;;7.03;6.20;;;22.00;68.30;;;;;;6230358;28;94113;-60
2023/12/08 06:32:54;;;;;;;6.90;5.80;;;21.90;68.10;;;;;;6224728;28;94085;-61
2023/12/08 06:35:56;;;;;;;6.40;5.80;;;21.90;68.20;;;;;;6230528;28;93261;-61
2023/12/08 06:38:58;;;;;;;6.78;5.97;;;22.00;68.30;;;;;;6229599;28;94134;-61
2023/12/08 06:42:00;;;;;;;6.55;5.82;;;21.90;68.30;;;;;;6230652;28;94122;-63
2023/12/08 06:45:04;;;;;;;6.57;5.85;;;22.00;68.40;;;;;;6224255;28;95001;-60
2023/12/08 06:48:06;;;;;;;5.57;5.07;;;22.00;68.30;;;;;;6226235;28;94057;-61
2023/12/08 06:51:08;;;;;;;6.55;5.47;;;21.90;68.20;;;;;;6232314;28;94191;-61
2023/12/08 06:54:10;;;;;;;8.82;5.90;;;21.90;67.90;;;;;;6230629;28;94076;-60
2023/12/08 06:57:12;;;;;;;6.05;5.43;;;22.00;67.70;;;;;;6223894;28;94216;-61
2023/12/08 07:00:17;;;;;;;6.20;5.60;;;22.00;67.50;;;;;;6234588;28;94356;-60
2023/12/08 07:03:19;;;;;;;7.20;5.63;;;22.00;67.60;;;;;;6228274;28;94750;-60
2023/12/08 07:06:21;;;;;;;7.53;5.65;;;21.90;67.40;;;;;;6218664;28;93523;-60
2023/12/08 07:09:23;;;;;;;5.72;5.13;;;22.00;67.50;;;;;;6234542;28;94062;-61
2023/12/08 07:12:25;;;;;;;7.43;5.68;;;22.00;67.70;;;;;;6226334;28;94013;-61
2023/12/08 07:15:28;;;;;;;8.13;5.90;;;21.90;67.90;;;;;;6225746;28;95396;-62
2023/12/08 07:18:30;;;;;;;8.32;6.20;;;22.00;68.40;;;;;;6228141;28;94098;-61
2023/12/08 07:21:32;;;;;;;6.32;5.60;;;22.00;69.10;;;;;;6224722;28;94470;-61
2023/12/08 07:24:37;;;;;;;7.60;6.30;;;22.00;69.20;;;;;;6224437;28;94034;-61
2023/12/08 07:27:39;;;;;;;7.45;5.97;;;22.00;69.40;;;;;;6210335;28;94179;-62
2023/12/08 07:30:42;;;;;;;6.82;5.90;;;22.10;69.70;;;;;;6226314;28;95199;-62
2023/12/08 07:33:45;;;;;;;8.98;5.60;;;22.10;70.00;;;;;;6229344;28;94371;-62
2023/12/08 07:36:47;;;;;;;7.15;6.03;;;22.10;70.00;;;;;;6224641;28;93417;-62
2023/12/08 07:39:49;;;;;;;8.32;6.03;;;22.10;70.40;;;;;;6211260;28;94204;-62
2023/12/08 07:42:51;;;;;;;6.15;5.40;;;22.10;70.50;;;;;;6224343;28;92982;-63
2023/12/08 07:45:54;;;;;;;6.47;5.63;;;22.20;70.60;;;;;;6236118;28;95019;-63
2023/12/08 07:48:56;;;;;;;6.93;5.47;;;22.20;70.80;;;;;;6238378;28;94181;-63
2023/12/08 07:51:59;;;;;;;6.40;5.22;;;22.20;70.80;;;;;;6210202;28;94204;-63
2023/12/08 07:55:02;;;;;;;5.90;5.05;;;22.20;70.80;;;;;;6241668;28;92039;-63
2023/12/08 07:58:04;;;;;;;7.00;5.45;;;22.20;70.90;;;;;;6229058;28;94182;-63
2023/12/08 08:01:08;;;;;;;26.42;12.05;;;22.20;70.50;;;;;;6226819;28;94457;-64
2023/12/08 08:04:12;;;;;;;69.50;26.63;;;22.30;70.40;;;;;;6231289;28;94057;-64
2023/12/08 08:07:14;;;;;;;41.15;18.10;;;22.20;70.10;;;;;;6225500;28;93447;-64
2023/12/08 08:10:16;;;;;;;38.72;16.92;;;22.20;69.60;;;;;;6216955;28;94781;-64
2023/12/08 08:13:18;;;;;;;36.83;14.93;;;22.20;69.30;;;;;;6225395;28;94166;-64
2023/12/08 08:16:21;;;;;;;34.60;14.13;;;22.20;68.80;;;;;;6222121;28;95053;-64
2023/12/08 08:19:24;;;;;;;29.05;13.73;;;22.20;68.40;;;;;;6226592;28;92987;-64
2023/12/08 08:22:25;;;;;;;24.25;11.98;;;22.20;68.30;;;;;;6215982;28;94049;-64
2023/12/08 08:25:27;;;;;;;27.42;12.30;;;22.20;68.20;;;;;;6224226;28;94120;-64
2023/12/08 08:28:29;;;;;;;25.77;11.73;;;22.10;68.40;;;;;;6218455;28;94141;-63
2023/12/08 08:31:33;;;;;;;28.00;11.63;;;22.20;71.90;;;;;;6227545;28;93968;-63
2023/12/08 08:34:35;;;;;;;29.05;11.23;;;22.20;72.90;;;;;;6217332;28;94275;-63
2023/12/08 08:37:37;;;;;;;26.20;10.43;;;22.20;71.40;;;;;;6218759;28;93443;-62
2023/12/08 08:40:39;;;;;;;16.40;9.48;;;22.20;71.80;;;;;;6214186;28;94088;-62
2023/12/08 08:43:41;;;;;;;17.35;8.98;;;22.20;70.90;;;;;;6228286;28;94175;-62
2023/12/08 08:46:44;;;;;;;18.23;8.57;;;22.30;70.40;;;;;;6218693;28;95024;-62
2023/12/08 08:49:46;;;;;;;15.95;8.55;;;22.30;69.90;;;;;;6244233;28;94142;-62
2023/12/08 08:52:49;;;;;;;18.52;8.73;;;22.20;69.70;;;;;;6215504;28;94028;-63
2023/12/08 08:55:51;;;;;;;13.77;7.85;;;22.20;69.60;;;;;;6229227;28;94294;-62
2023/12/08 08:58:53;;;;;;;17.20;8.18;;;22.20;69.50;;;;;;6228220;28;94435;-62
2023/12/08 09:01:57;;;;;;;13.82;7.47;;;22.20;69.40;;;;;;6207111;28;94042;-62
2023/12/08 09:04:58;;;;;;;15.18;7.78;;;22.20;69.30;;;;;;6217095;28;94027;-62
2023/12/08 09:08:00;;;;;;;13.70;7.45;;;22.20;69.30;;;;;;6219222;28;93390;-62
2023/12/08 09:11:03;;;;;;;12.43;7.38;;;22.20;69.30;;;;;;6223777;28;94137;-62
2023/12/08 09:14:05;;;;;;;14.50;7.00;;;22.20;69.10;;;;;;6227359;28;94259;-63
2023/12/08 09:17:08;;;;;;;12.43;7.05;;;22.20;69.10;;;;;;6227829;28;93962;-63
2023/12/08 09:20:14;;;;;;;14.32;7.63;;;22.20;69.00;;;;;;6218260;28;94221;-62
2023/12/08 09:23:16;;;;;;;12.05;7.25;;;22.20;69.00;;;;;;6214300;28;94053;-62
2023/12/08 09:26:18;;;;;;;11.85;6.47;;;22.20;69.00;;;;;;6228131;28;95026;-63
2023/12/08 09:29:20;;;;;;;11.82;6.72;;;22.20;68.90;;;;;;6226083;28;93115;-63
2023/12/08 09:32:23;;;;;;;11.27;7.22;;;22.30;68.90;;;;;;6217504;28;94190;-62
2023/12/08 09:35:25;;;;;;;9.50;6.72;;;22.30;68.90;;;;;;6218237;28;94440;-63
2023/12/08 09:38:27;;;;;;;9.05;6.25;;;22.20;68.80;;;;;;6229636;28;93390;-63
2023/12/08 09:41:30;;;;;;;11.18;6.32;;;22.20;68.90;;;;;;6222345;28;94096;-62
2023/12/08 09:44:34;;;;;;;10.95;6.43;;;22.20;68.90;;;;;;6225882;28;92688;-62
2023/12/08 09:47:40;;;;;;;12.70;6.45;;;22.20;68.90;;;;;;6215642;28;95014;-62
2023/12/08 09:50:42;;;;;;;10.68;6.18;;;22.20;68.80;;;;;;6208958;28;94070;-62
2023/12/08 09:53:46;;;;;;;10.52;6.32;;;22.20;68.90;;;;;;6209316;28;94110;-63
2023/12/08 09:56:52;;;;;;;9.75;6.13;;;22.20;68.80;;;;;;6220452;28;94119;-62
2023/12/08 09:59:57;;;;;;;10.90;6.15;;;22.20;68.80;;;;;;6232712;28;94065;-62
2023/12/08 10:03:01;;;;;;;8.38;5.43;;;22.20;68.90;;;;;;6222709;28;94174;-63
2023/12/08 10:06:03;;;;;;;8.85;5.43;;;22.20;68.90;;;;;;6209430;28;94107;-62
2023/12/08 10:09:07;;;;;;;7.40;5.07;;;22.20;68.90;;;;;;6213637;28;93336;-63
2023/12/08 10:12:10;;;;;;;8.13;5.32;;;22.20;68.90;;;;;;6214423;28;94119;-63
2023/12/08 10:15:12;;;;;;;8.68;5.47;;;22.20;68.90;;;;;;6231670;28;94191;-62
2023/12/08 10:18:26;;;;;;;7.88;5.20;;;22.30;68.90;;;;;;6231287;28;95127;-62
2023/12/08 10:21:28;;;;;;;7.40;5.18;;;22.20;68.90;;;;;;6228421;28;94111;-62
2023/12/08 10:24:31;;;;;;;7.13;5.18;;;22.20;68.90;;;;;;6229319;28;94115;-62
2023/12/08 10:27:35;;;;;;;6.95;5.00;;;22.20;68.90;;;;;;6216745;28;94144;-62
2023/12/08 10:30:38;;;;;;;8.60;5.25;;;22.20;68.90;;;;;;6223713;28;93000;-62
2023/12/08 10:33:42;;;;;;;7.20;4.78;;;22.20;68.90;;;;;;6225353;28;94462;-62
2023/12/08 10:36:45;;;;;;;9.45;5.20;;;22.20;68.90;;;;;;6223020;28;94138;-62
2023/12/08 10:39:47;;;;;;;8.85;5.55;;;22.20;68.90;;;;;;6225213;28;93495;-62
2023/12/08 10:42:49;;;;;;;8.10;5.00;;;22.20;68.90;;;;;;6230619;28;94158;-63
2023/12/08 10:45:51;;;;;;;8.05;5.20;;;22.20;69.00;;;;;;6229261;28;94033;-63
2023/12/08 10:48:56;;;;;;;7.15;4.82;;;22.10;69.00;;;;;;6211074;28;95274;-63
2023/12/08 10:51:58;;;;;;;7.57;4.72;;;22.10;69.00;;;;;;6206965;28;94100;-63
2023/12/08 10:55:00;;;;;;;5.85;4.65;;;22.10;69.10;;;;;;6217590;28;93605;-62
2023/12/08 10:58:06;;;;;;;6.55;4.82;;;22.20;69.10;;;;;;6207446;28;94074;-62
2023/12/08 11:01:12;;;;;;;6.55;4.95;;;22.10;69.10;;;;;;6225605;28;94060;-63
2023/12/08 11:04:21;;;;;;;5.97;4.50;;;22.10;69.10;;;;;;6216795;28;94017;-62
2023/12/08 11:07:31;;;;;;;6.85;4.90;;;22.10;69.10;;;;;;6191235;28;94049;-63
2023/12/08 11:10:38;;;;;;;6.72;4.85;;;22.10;69.10;;;;;;6197471;28;94288;-62
2023/12/08 11:13:45;;;;;;;7.90;5.20;;;22.10;69.10;;;;;;6205334;28;94060;-62
2023/12/08 11:16:53;;;;;;;6.55;4.78;;;22.00;69.10;;;;;;6196411;28;94498;-62
2023/12/08 11:19:58;;;;;;;5.90;4.20;;;22.10;69.20;;;;;;6206468;28;95063;-62
2023/12/08 11:23:00;;;;;;;6.78;4.45;;;22.00;69.10;;;;;;6205461;28;94081;-62
2023/12/08 11:26:08;;;;;;;8.43;4.93;;;22.10;69.30;;;;;;6198849;28;94952;-62
2023/12/08 11:29:19;;;;;;;7.03;4.95;;;22.00;69.10;;;;;;6205015;28;94050;-62
2023/12/08 11:32:31;;;;;;;6.68;4.97;;;22.00;69.10;;;;;;6205570;28;94078;-62
2023/12/08 11:35:34;;;;;;;6.80;4.65;;;22.00;69.20;;;;;;6205443;28;94293;-62
2023/12/08 11:38:37;;;;;;;5.80;4.18;;;22.00;69.20;;;;;;6206478;28;94157;-62
2023/12/08 11:41:39;;;;;;;6.20;4.50;;;22.00;69.10;;;;;;6202128;28;93406;-62
2023/12/08 11:44:44;;;;;;;5.53;4.40;;;22.00;69.20;;;;;;6211263;28;94090;-62
2023/12/08 11:47:46;;;;;;;6.13;4.50;;;22.00;69.20;;;;;;6229486;28;94202;-62
2023/12/08 11:50:50;;;;;;;6.35;4.22;;;22.00;69.20;;;;;;6221412;28;95372;-62
2023/12/08 11:53:56;;;;;;;6.40;4.47;;;22.00;69.20;;;;;;6229537;28;94243;-62
2023/12/08 11:56:57;;;;;;;7.30;4.68;;;22.00;69.30;;;;;;6211054;28;93989;-63
2023/12/08 12:00:01;;;;;;;6.32;4.40;;;22.00;69.30;;;;;;6217348;28;94104;-62
2023/12/08 12:03:04;;;;;;;6.55;4.07;;;22.00;69.20;;;;;;6227534;28;94146;-62
2023/12/08 12:06:08;;;;;;;5.72;4.20;;;22.00;69.20;;;;;;6229495;28;93179;-62
2023/12/08 12:09:11;;;;;;;5.00;4.07;;;22.00;69.10;;;;;;6212010;28;93020;-62
2023/12/08 12:12:19;;;;;;;5.53;4.40;;;22.00;69.10;;;;;;6218869;28;93364;-62
2023/12/08 12:15:23;;;;;;;5.82;4.32;;;22.00;69.10;;;;;;6225100;28;94151;-62
2023/12/08 12:18:25;;;;;;;4.65;4.03;;;22.00;69.10;;;;;;6217397;28;93249;-62
2023/12/08 12:21:29;;;;;;;4.43;3.80;;;22.00;69.00;;;;;;6220946;28;95091;-63
2023/12/08 12:24:30;;;;;;;4.40;3.67;;;22.00;69.00;;;;;;6226127;28;94122;-62
2023/12/08 12:27:32;;;;;;;4.97;3.88;;;22.00;69.00;;;;;;6219074;28;93292;-62
2023/12/08 12:30:34;;;;;;;4.75;3.58;;;22.00;69.00;;;;;;6235159;28;94387;-62
2023/12/08 12:33:37;;;;;;;4.88;3.78;;;22.00;69.10;;;;;;6230264;28;94091;-62
2023/12/08 12:36:41;;;;;;;5.45;3.92;;;22.00;69.00;;;;;;6227438;28;94042;-62
2023/12/08 12:39:43;;;;;;;5.07;3.80;;;22.00;68.90;;;;;;6228539;28;94098;-62
2023/12/08 12:42:47;;;;;;;4.80;3.80;;;22.00;69.00;;;;;;6228760;28;93363;-62
2023/12/08 12:45:50;;;;;;;5.63;3.90;;;21.90;68.90;;;;;;6215917;28;94013;-62
2023/12/08 12:48:53;;;;;;;4.43;3.85;;;21.90;68.90;;;;;;6215976;28;94097;-63
2023/12/08 12:51:56;;;;;;;5.03;4.00;;;22.00;69.00;;;;;;6204648;28;95088;-62
2023/12/08 12:54:58;;;;;;;4.05;3.53;;;22.00;68.90;;;;;;6204400;28;94057;-62
2023/12/08 12:58:02;;;;;;;4.80;3.83;;;22.00;68.90;;;;;;6204342;28;94308;-62
2023/12/08 13:01:11;;;;;;;4.57;3.53;;;22.00;68.90;;;;;;6216985;28;94122;-62
2023/12/08 13:04:15;;;;;;;4.13;3.72;;;22.00;68.90;;;;;;6216998;28;94420;-62
2023/12/08 13:07:18;;;;;;;5.88;3.95;;;22.00;68.90;;;;;;6205452;28;94263;-63
2023/12/08 13:10:20;;;;;;;5.82;4.05;;;22.00;68.80;;;;;;6231101;28;94047;-62
2023/12/08 13:13:22;;;;;;;4.22;3.40;;;22.00;68.80;;;;;;6228637;28;93355;-63
2023/12/08 13:16:24;;;;;;;4.20;3.70;;;22.00;68.80;;;;;;6214964;28;93321;-62
2023/12/08 13:19:26;;;;;;;4.82;3.58;;;21.90;68.70;;;;;;6246724;28;94111;-62
2023/12/08 13:22:30;;;;;;;4.53;3.80;;;21.90;68.70;;;;;;6239035;28;94998;-63
2023/12/08 13:25:32;;;;;;;4.95;3.60;;;21.90;68.70;;;;;;6219632;28;95568;-62
2023/12/08 13:28:34;;;;;;;6.65;4.43;;;21.90;68.80;;;;;;6240944;28;94355;-63
2023/12/08 13:31:36;;;;;;;5.20;3.85;;;21.90;68.80;;;;;;6228388;28;94078;-62
2023/12/08 13:34:38;;;;;;;5.30;4.03;;;21.90;68.80;;;;;;6227857;28;94114;-62
2023/12/08 13:37:42;;;;;;;4.57;3.67;;;21.90;68.90;;;;;;6240205;28;93025;-62
2023/12/08 13:40:45;;;;;;;4.38;3.60;;;21.90;68.80;;;;;;6226893;28;94124;-63
2023/12/08 13:43:47;;;;;;;4.15;3.50;;;21.90;68.80;;;;;;6229119;28;93695;-62
2023/12/08 13:46:49;;;;;;;3.70;3.33;;;21.80;68.80;;;;;;6225199;28;94207;-62
2023/12/08 13:49:51;;;;;;;3.83;3.42;;;21.80;68.80;;;;;;6214617;28;94189;-62
2023/12/08 13:52:55;;;;;;;4.00;3.55;;;21.80;68.80;;;;;;6236078;28;95383;-62
2023/12/08 13:55:57;;;;;;;4.68;3.67;;;21.80;68.80;;;;;;6233148;28;94420;-63
2023/12/08 13:58:59;;;;;;;4.65;3.55;;;21.80;68.80;;;;;;6226381;28;94244;-62
2023/12/08 14:02:01;;;;;;;5.57;3.97;;;21.80;68.90;;;;;;6226945;28;94338;-62
2023/12/08 14:05:02;;;;;;;5.35;3.85;;;21.80;68.80;;;;;;6225847;28;94166;-62
2023/12/08 14:08:08;;;;;;;4.38;3.58;;;21.70;68.80;;;;;;6221686;28;94134;-62
2023/12/08 14:11:10;;;;;;;4.55;3.90;;;21.70;68.80;;;;;;6225779;28;94198;-62
2023/12/08 14:14:12;;;;;;;4.72;3.70;;;21.80;68.80;;;;;;6229610;28;93330;-62
2023/12/08 14:17:15;;;;;;;4.22;3.40;;;21.70;68.80;;;;;;6227289;28;94261;-62
2023/12/08 14:20:17;;;;;;;5.80;3.88;;;21.70;68.80;;;;;;6227001;28;94398;-62
2023/12/08 14:23:21;;;;;;;4.68;3.70;;;21.70;68.80;;;;;;6226285;28;94963;-62
2023/12/08 14:26:23;;;;;;;3.97;3.42;;;21.70;68.80;;;;;;6224048;28;95288;-62
2023/12/08 14:29:25;;;;;;;3.90;3.50;;;21.70;68.80;;;;;;6227266;28;94070;-63
2023/12/08 14:32:27;;;;;;;6.28;4.10;;;21.70;68.80;;;;;;6227521;28;95709;-62
2023/12/08 14:35:28;;;;;;;3.85;3.47;;;21.70;68.80;;;;;;6208560;28;94103;-63
2023/12/08 14:38:32;;;;;;;4.15;3.40;;;21.70;68.80;;;;;;6231186;28;93991;-62
2023/12/08 14:41:34;;;;;;;3.50;3.20;;;21.70;68.80;;;;;;6219527;28;94096;-62
2023/12/08 14:44:36;;;;;;;4.05;3.65;;;21.70;68.80;;;;;;6237760;28;93421;-63
2023/12/08 14:47:38;;;;;;;3.70;3.40;;;21.70;68.80;;;;;;6231348;28;94201;-62
2023/12/08 14:50:40;;;;;;;5.40;3.78;;;21.60;68.80;;;;;;6221921;28;94459;-63
2023/12/08 14:53:44;;;;;;;4.25;3.45;;;21.70;68.80;;;;;;6217522;28;95001;-63
2023/12/08 14:56:46;;;;;;;3.80;3.40;;;21.60;68.80;;;;;;6210721;28;92940;-63
2023/12/08 14:59:48;;;;;;;4.82;3.67;;;21.70;68.80;;;;;;6217577;28;94419;-62
2023/12/08 15:02:51;;;;;;;4.43;3.58;;;21.70;68.70;;;;;;6221987;28;94116;-63
2023/12/08 15:05:53;;;;;;;3.75;3.30;;;21.70;68.60;;;;;;6227742;28;94170;-62
2023/12/08 15:08:56;;;;;;;6.22;4.20;;;21.70;68.50;;;;;;6214782;28;94069;-63
2023/12/08 15:11:58;;;;;;;5.55;3.72;;;21.70;68.50;;;;;;6230838;28;94130;-63
2023/12/08 15:15:00;;;;;;;3.65;3.28;;;21.70;68.40;;;;;;6231398;28;93686;-63
2023/12/08 15:18:02;;;;;;;4.00;3.70;;;21.70;68.40;;;;;;6221265;28;94083;-63
2023/12/08 15:21:07;;;;;;;4.20;3.30;;;21.70;68.40;;;;;;6215276;28;94125;-63
2023/12/08 15:24:10;;;;;;;3.95;3.40;;;21.70;68.40;;;;;;6225382;28;94054;-63
2023/12/08 15:27:12;;;;;;;4.43;3.50;;;21.70;68.40;;;;;;6230072;28;94443;-63
2023/12/08 15:30:14;;;;;;;4.22;3.55;;;21.70;68.40;;;;;;6228503;28;92999;-62
2023/12/08 15:33:17;;;;;;;5.82;3.83;;;21.70;68.30;;;;;;6241767;28;93951;-62
2023/12/08 15:36:18;;;;;;;5.43;4.07;;;21.70;68.30;;;;;;6230044;28;94142;-62
2023/12/08 15:39:22;;;;;;;3.78;3.40;;;21.70;68.30;;;;;;6229743;28;94225;-62
2023/12/08 15:42:24;;;;;;;3.60;3.30;;;21.70;68.30;;;;;;6229565;28;94445;-62
2023/12/08 15:45:26;;;;;;;3.90;3.47;;;21.70;68.30;;;;;;6227705;28;92003;-63
2023/12/08 15:48:28;;;;;;;3.88;3.47;;;21.70;68.30;;;;;;6230231;28;94158;-62